Belleville, MI

9:54 PM EDT on August 30, 2015 (GMT -0400)
Willow Run | | Change Station
CLOSE
Current Station
Airport
Location: Ypsilanti,
Elevation: 715 ft
Nearby Weather Stations

Elev 715 ft 42.24 °N, 83.53 °W | Updated 1 hour ago

Partly Cloudy
Partly Cloudy
76 °F
Feels Like 76 °F
N
0
Wind Variable Wind from North

Today
High -- | Low -- °F
--% Chance of Precip.
Yesterday
High -- | Low -- °F
Precip. -- in
6:57 AM 8:11 PM
Full, 97% visible
Pressure 30.01 in
Visibility 9.0 miles
Clouds Few 3900 ft
Few 4800 ft
Dew Point 68 °F
Humidity 76%
Rainfall 0.01 in
Snow Depth Not available.
UV 0 out of 12
Pollen 7.80 out of 12
Air Quality Not available.
Flu Activity Not available.
METAR KYIP 310053Z AUTO 00000KT 9SM FEW039 FEW048 24/20 A3003 RMK AO2 SLP162 T02440200 TSNO
Pressure 30.01 in
Visibility 9.0 miles
Clouds Few 3900 ft
Few 4800 ft
Dew Point 68 °F
Humidity 76%
Rainfall 0.01 in
Snow Depth Not available.
UV 0 out of 12
Pollen 7.80 out of 12
Air Quality Not available.
Flu Activity Not available.
METAR KYIP 310053Z AUTO 00000KT 9SM FEW039 FEW048 24/20 A3003 RMK AO2 SLP162 T02440200 TSNO

10-Day Weather Forecast

×

Almanac

Astronomy

Aug. 30, 2015 Rise Set
Actual Time
Civil Twilight
Nautical Twilight
Astronomical Twilight
Moon
Length of Visible Light
Length of Day
Tomorrow will be .
, % of the Moon is Illuminated

Today's Extremes

State Highs State Lows

Community

WunderPhotos

Upload Photos

1,851,145 photos uploaded!

WunderBlogs® & News

Nearby

Air Quality

  Air Quality AQ Index Pollutant
Not available.

Snow Depth

Station Depth Elevation

Earthquake Activity

City Distance Mag. Time & Date
Minimum magnitude displayed is 2.5.

Coastal Water Temperatures

Place Temperature

Stations

Nearby Weather Stations

Station Location Temp. Windchill Dew Point Humidity Wind Precip. Elev Updated Type